createdAt,value
2019-04-10T00:04:53.629Z,9.89
2019-04-10T00:09:47.607Z,9.85
2019-04-10T00:14:41.566Z,9.74
2019-04-10T00:19:35.903Z,9.66
2019-04-10T00:24:30.237Z,9.57
2019-04-10T00:29:24.572Z,9.52
2019-04-10T00:34:18.597Z,9.48
2019-04-10T00:39:12.687Z,9.34
2019-04-10T00:44:07.768Z,9.30
2019-04-10T00:49:01.995Z,9.25
2019-04-10T00:53:55.956Z,9.21
2019-04-10T00:58:51.185Z,9.15
2019-04-10T01:03:48.093Z,9.12
2019-04-10T01:08:41.304Z,9.09
2019-04-10T01:13:35.265Z,9.06
2019-04-10T01:18:29.233Z,9.03
2019-04-10T01:23:23.188Z,8.96
2019-04-10T01:28:17.153Z,8.98
2019-04-10T01:33:12.345Z,8.89
2019-04-10T01:38:06.608Z,8.83
2019-04-10T01:43:08.309Z,8.75
2019-04-10T01:47:56.604Z,8.68
2019-04-10T01:52:50.591Z,8.66
2019-04-10T01:57:44.707Z,8.52
2019-04-10T02:02:41.177Z,8.37
2019-04-10T02:07:35.216Z,8.35
2019-04-10T02:12:29.179Z,8.24
2019-04-10T02:17:24.349Z,8.07
2019-04-10T02:22:18.457Z,7.94
2019-04-10T02:27:12.446Z,7.81
2019-04-10T02:32:07.961Z,7.77
2019-04-10T02:37:02.546Z,7.66
2019-04-10T02:41:58.388Z,7.59
2019-04-10T02:46:54.898Z,7.50
2019-04-10T02:51:49.922Z,7.39
2019-04-10T02:56:45.885Z,7.32
2019-04-10T03:01:41.368Z,7.21
2019-04-10T03:06:35.671Z,7.07
2019-04-10T03:11:31.369Z,7.01
2019-04-10T03:16:25.697Z,6.91
2019-04-10T03:21:20.714Z,6.81
2019-04-10T03:26:15.353Z,6.71
2019-04-10T03:31:10.628Z,6.62
2019-04-10T03:36:05.417Z,6.53
2019-04-10T03:40:59.816Z,6.46
2019-04-10T03:45:55.039Z,6.38
2019-04-10T03:50:50.155Z,6.32
2019-04-10T03:55:45.255Z,6.24
2019-04-10T04:00:40.425Z,6.16
2019-04-10T04:05:34.987Z,6.18
2019-04-10T04:10:29.222Z,6.06
2019-04-10T04:15:24.015Z,6.01
2019-04-10T04:20:19.073Z,5.95
2019-04-10T04:25:13.133Z,5.89
2019-04-10T04:30:08.423Z,5.84
2019-04-10T04:35:04.634Z,5.85
2019-04-10T04:39:58.674Z,5.74
2019-04-10T04:44:52.757Z,5.75
2019-04-10T04:49:46.843Z,5.85
2019-04-10T04:54:41.512Z,5.79
2019-04-10T04:59:36.533Z,5.96
2019-04-10T05:04:32.297Z,5.94
2019-04-10T05:09:33.319Z,6.00
2019-04-10T05:14:23.792Z,6.01
2019-04-10T05:19:18.951Z,6.20
2019-04-10T05:24:13.717Z,6.23
2019-04-10T05:29:07.710Z,6.33
2019-04-10T05:34:01.742Z,6.38
2019-04-10T05:38:55.947Z,6.49
2019-04-10T05:43:50.936Z,6.57
2019-04-10T05:48:46.125Z,6.66
2019-04-10T05:53:40.840Z,6.75
2019-04-10T05:58:34.904Z,6.86
2019-04-10T06:03:28.875Z,6.93
2019-04-10T06:08:23.743Z,6.97
2019-04-10T06:13:17.823Z,7.10
2019-04-10T06:18:12.816Z,7.11
2019-04-10T06:23:08.070Z,7.28
2019-04-10T06:28:03.144Z,7.45
2019-04-10T06:32:57.901Z,7.55
2019-04-10T06:37:52.537Z,7.67
2019-04-10T06:42:50.803Z,7.82
2019-04-10T06:47:42.548Z,7.97
2019-04-10T06:52:36.702Z,8.10
2019-04-10T06:57:30.780Z,8.25
2019-04-10T07:02:28.279Z,8.31
2019-04-10T07:07:23.867Z,8.41
2019-04-10T07:12:16.570Z,8.59
2019-04-10T07:17:13.797Z,8.76
2019-04-10T07:22:11.605Z,8.80
2019-04-10T07:27:04.833Z,8.95
2019-04-10T07:31:59.180Z,9.11
2019-04-10T07:36:53.971Z,9.29
2019-04-10T07:41:48.016Z,9.37
2019-04-10T07:46:42.350Z,9.51
2019-04-10T07:51:36.724Z,9.68
2019-04-10T07:56:31.204Z,9.88
2019-04-10T08:01:26.360Z,10.18
2019-04-10T08:06:20.552Z,10.37
2019-04-10T08:11:15.467Z,10.49
2019-04-10T08:16:10.577Z,10.68
2019-04-10T08:21:05.028Z,10.87
2019-04-10T08:26:00.077Z,11.19
2019-04-10T08:30:54.696Z,11.35
2019-04-10T08:35:49.515Z,11.54
2019-04-10T08:40:43.926Z,11.75
2019-04-10T08:45:46.469Z,11.93
2019-04-10T08:50:34.438Z,11.96
2019-04-10T08:55:28.537Z,12.21
2019-04-10T09:00:22.733Z,12.52
2019-04-10T09:05:17.520Z,12.72
2019-04-10T09:10:12.334Z,12.70
2019-04-10T09:15:07.674Z,12.79
2019-04-10T09:20:04.534Z,13.07
2019-04-10T09:24:58.681Z,13.15
2019-04-10T09:29:54.166Z,13.32
2019-04-10T09:34:48.338Z,13.50
2019-04-10T09:39:43.411Z,13.48
2019-04-10T09:44:37.946Z,13.57
2019-04-10T09:49:38.983Z,13.93
2019-04-10T09:54:28.175Z,13.90
2019-04-10T09:59:33.981Z,14.11
2019-04-10T10:04:19.420Z,14.36
2019-04-10T10:09:14.780Z,14.49
2019-04-10T10:14:08.795Z,14.73
2019-04-10T10:19:02.889Z,14.68
2019-04-10T10:23:56.956Z,15.18
2019-04-10T10:28:50.947Z,15.66
2019-04-10T10:33:45.895Z,15.54
2019-04-10T10:38:40.110Z,15.63
2019-04-10T10:43:34.387Z,16.48
2019-04-10T10:48:29.479Z,16.95
2019-04-10T10:53:24.056Z,17.39
2019-04-10T10:58:18.173Z,20.48
2019-04-10T11:03:12.245Z,21.08
2019-04-10T11:08:06.900Z,22.04
2019-04-10T11:13:02.244Z,25.02
2019-04-10T11:17:56.627Z,26.64
2019-04-10T11:22:50.804Z,27.99
2019-04-10T11:27:44.878Z,27.59
2019-04-10T11:32:38.882Z,27.06
2019-04-10T11:37:41.157Z,27.45
2019-04-10T11:42:29.066Z,30.36
2019-04-10T11:47:26.366Z,32.07
2019-04-10T11:52:31.180Z,33.20
2019-04-10T11:57:19.811Z,31.31
2019-04-10T12:02:14.540Z,32.81
2019-04-10T12:07:11.184Z,34.38
2019-04-10T12:12:05.662Z,34.12
2019-04-10T12:16:59.856Z,35.41
2019-04-10T12:21:53.897Z,36.48
2019-04-10T12:26:47.886Z,33.87
2019-04-10T12:31:41.993Z,37.13
2019-04-10T12:36:36.424Z,37.94
2019-04-10T12:41:31.129Z,35.22
2019-04-10T12:46:25.172Z,37.63
2019-04-10T12:51:19.362Z,36.23
2019-04-10T12:56:13.770Z,37.98
2019-04-10T13:01:08.709Z,36.80
2019-04-10T13:06:03.369Z,37.05
2019-04-10T13:10:58.313Z,36.95
2019-04-10T13:15:53.966Z,37.57
2019-04-10T13:20:48.398Z,38.66
2019-04-10T13:25:42.844Z,36.46
2019-04-10T13:30:46.517Z,37.34
2019-04-10T13:35:35.138Z,36.77
2019-04-10T13:40:29.890Z,38.72
2019-04-10T13:45:24.001Z,37.08
2019-04-10T13:50:18.954Z,38.66
2019-04-10T13:55:13.337Z,38.13
2019-04-10T14:00:09.948Z,36.03
2019-04-10T14:05:07.395Z,38.07
2019-04-10T14:10:05.072Z,37.76
2019-04-10T14:14:59.294Z,38.33
2019-04-10T14:19:54.126Z,36.28
2019-04-10T14:24:49.772Z,37.47
2019-04-10T14:29:44.861Z,37.52
2019-04-10T14:34:39.179Z,38.48
2019-04-10T14:39:33.595Z,40.58
2019-04-10T14:44:28.577Z,38.12
2019-04-10T14:49:22.968Z,39.65
2019-04-10T14:54:17.590Z,38.54
2019-04-10T14:59:11.778Z,38.80
2019-04-10T15:04:05.760Z,40.59
2019-04-10T15:08:59.976Z,40.20
2019-04-10T15:13:55.044Z,41.99
2019-04-10T15:18:49.146Z,40.85
2019-04-10T15:23:43.286Z,39.06
2019-04-10T15:28:37.298Z,39.84
2019-04-10T15:33:31.767Z,40.19
2019-04-10T15:38:26.209Z,41.35
2019-04-10T15:43:23.429Z,42.15
2019-04-10T15:48:17.329Z,41.47
2019-04-10T15:53:11.755Z,41.47
2019-04-10T15:58:06.679Z,41.85
2019-04-10T16:03:00.829Z,40.56
2019-04-10T16:07:55.318Z,39.96
2019-04-10T16:12:50.085Z,39.75
2019-04-10T16:17:46.073Z,39.45
2019-04-10T16:22:42.658Z,39.06
2019-04-10T16:27:36.991Z,39.51
2019-04-10T16:32:31.091Z,39.41
2019-04-10T16:37:26.263Z,36.17
2019-04-10T16:45:44.370Z,35.31
2019-04-10T16:50:38.524Z,32.85
2019-04-10T16:55:32.617Z,27.10
2019-04-10T17:00:27.007Z,23.88
2019-04-10T17:05:21.228Z,21.81
2019-04-10T17:10:22.583Z,19.33
2019-04-10T17:15:13.354Z,18.13
2019-04-10T17:20:08.552Z,16.90
2019-04-10T17:25:04.727Z,15.72
2019-04-10T17:29:58.893Z,15.32
2019-04-10T17:34:52.905Z,14.84
2019-04-10T17:39:47.727Z,14.33
2019-04-10T17:44:42.219Z,14.04
2019-04-10T17:49:36.474Z,13.72
2019-04-10T17:54:31.425Z,13.48
2019-04-10T17:59:26.710Z,13.15
2019-04-10T18:04:22.063Z,12.60
2019-04-10T18:09:16.293Z,12.31
2019-04-10T18:14:11.172Z,12.19
2019-04-10T18:19:06.418Z,11.97
2019-04-10T18:24:01.954Z,11.71
2019-04-10T18:28:56.566Z,11.46
2019-04-10T18:33:51.082Z,11.34
2019-04-10T18:38:48.065Z,11.08
2019-04-10T18:43:42.499Z,10.85
2019-04-10T18:48:36.778Z,10.72
2019-04-10T18:53:31.003Z,10.54
2019-04-10T18:58:27.573Z,10.44
2019-04-10T19:03:23.620Z,10.30
2019-04-10T19:08:18.076Z,10.10
2019-04-10T19:16:48.032Z,10.06
2019-04-10T19:21:42.299Z,9.95
2019-04-10T19:26:37.670Z,9.76
2019-04-10T19:31:34.757Z,9.62
2019-04-10T19:36:29.905Z,9.52
2019-04-10T19:45:54.338Z,9.36
2019-04-10T19:50:49.812Z,9.19
2019-04-10T19:55:44.170Z,9.08
2019-04-10T20:00:38.830Z,9.02
2019-04-10T20:05:33.707Z,8.95
2019-04-10T20:10:27.936Z,8.81
2019-04-10T20:16:45.026Z,8.74
2019-04-10T20:21:39.751Z,8.68
2019-04-10T20:26:34.928Z,8.50
2019-04-10T20:31:31.201Z,8.44
2019-04-10T20:36:25.357Z,8.39
2019-04-10T20:41:19.508Z,8.25
2019-04-10T20:46:13.883Z,8.26
2019-04-10T20:51:08.281Z,8.13
2019-04-10T20:56:02.601Z,8.03
2019-04-10T21:00:56.999Z,8.01
2019-04-10T21:05:51.075Z,7.84
2019-04-10T21:10:45.195Z,7.85
2019-04-10T21:15:39.151Z,7.76
2019-04-10T21:20:34.498Z,7.68
2019-04-10T21:25:28.616Z,7.54
2019-04-10T21:30:24.503Z,7.52
2019-04-10T21:35:20.852Z,7.42
2019-04-10T21:40:15.057Z,7.35
2019-04-10T21:45:09.574Z,7.44
2019-04-10T21:50:04.663Z,7.37
2019-04-10T21:55:00.457Z,7.43
2019-04-10T21:59:54.715Z,7.35
2019-04-10T22:04:49.798Z,7.29
2019-04-10T22:10:01.546Z,7.27
2019-04-10T22:14:56.092Z,7.19
2019-04-10T22:19:50.737Z,7.07
2019-04-10T22:24:44.935Z,6.94
2019-04-10T22:29:39.029Z,6.98
2019-04-10T22:34:34.179Z,6.88
2019-04-10T22:39:29.692Z,6.85
2019-04-10T22:44:35.387Z,6.73
2019-04-10T22:49:20.266Z,6.57
2019-04-10T22:54:14.596Z,6.50
2019-04-10T22:59:08.740Z,6.51
2019-04-10T23:04:03.793Z,6.44
2019-04-10T23:08:58.084Z,6.32
2019-04-10T23:13:52.222Z,6.25
2019-04-10T23:18:46.198Z,6.21
2019-04-10T23:23:41.104Z,6.06
2019-04-10T23:28:35.785Z,5.92
2019-04-10T23:33:30.225Z,5.91
2019-04-10T23:38:24.273Z,5.79
2019-04-10T23:43:20.821Z,5.69
2019-04-10T23:48:14.912Z,5.74
2019-04-10T23:53:08.917Z,5.64
2019-04-10T23:58:02.893Z,5.70
